Time;durP1;ratioP1;P1;durP2;ratioP2;P2;SDS_P1;SDS_P2;PMS_P1;PMS_P2;Temp;Humidity;BMP_temperature;BMP_pressure;BME280_temperature;BME280_humidity;BME280_pressure;Samples;Min_cycle;Max_cycle;Signal;HPM_P1;HPM_P2
2021/03/12 00:00:50;;;;;;;9.38;6.28;;;23.10;90.60;;;;;;5063274;28;20570;-70
2021/03/12 00:03:30;;;;;;;6.22;4.45;;;23.30;90.30;;;;;;5071705;28;20028;-70
2021/03/12 00:06:01;;;;;;;7.05;4.78;;;23.40;88.80;;;;;;5070861;28;20035;-70
2021/03/12 00:08:38;;;;;;;6.93;4.72;;;23.50;88.80;;;;;;5064316;28;20017;-70
2021/03/12 00:11:07;;;;;;;9.00;4.60;;;23.70;88.20;;;;;;5063273;28;20131;-69
2021/03/12 00:13:35;;;;;;;7.53;5.40;;;24.10;87.30;;;;;;5066267;28;20404;-70
2021/03/12 00:16:04;;;;;;;7.10;4.45;;;24.30;87.10;;;;;;5068249;28;20036;-70
2021/03/12 00:18:37;;;;;;;10.45;5.75;;;24.30;85.00;;;;;;5063119;28;20095;-70
2021/03/12 00:21:06;;;;;;;8.43;5.22;;;24.40;85.80;;;;;;5077381;28;20074;-68
2021/03/12 00:23:34;;;;;;;7.93;5.97;;;24.50;84.90;;;;;;5065662;28;20107;-69
2021/03/12 00:26:02;;;;;;;7.50;5.32;;;24.80;85.40;;;;;;5061480;28;20039;-69
2021/03/12 00:28:29;;;;;;;9.30;4.53;;;24.70;85.60;;;;;;5071071;28;20032;-70
2021/03/12 00:30:59;;;;;;;7.72;5.55;;;24.90;84.70;;;;;;5072654;28;20051;-70
2021/03/12 00:33:28;;;;;;;9.50;5.78;;;24.90;83.80;;;;;;5068128;28;20510;-69
2021/03/12 00:35:56;;;;;;;10.65;5.57;;;24.80;83.70;;;;;;5070201;28;20090;-71
2021/03/12 00:38:24;;;;;;;12.25;5.97;;;24.70;83.70;;;;;;5070935;28;20032;-70
2021/03/12 00:41:00;;;;;;;9.65;5.68;;;24.70;84.30;;;;;;5065455;28;20028;-70
2021/03/12 00:43:28;;;;;;;8.43;4.47;;;24.50;85.40;;;;;;5048622;28;20032;-69
2021/03/12 00:46:01;;;;;;;6.30;4.60;;;24.50;84.30;;;;;;5067459;28;20067;-70
2021/03/12 00:48:29;;;;;;;8.65;5.68;;;24.60;84.30;;;;;;5065987;28;20059;-69
2021/03/12 00:50:57;;;;;;;9.70;5.85;;;24.60;84.60;;;;;;5061178;28;20398;-70
2021/03/12 00:53:25;;;;;;;8.27;5.07;;;24.60;85.70;;;;;;5073645;28;20024;-69
2021/03/12 00:55:52;;;;;;;7.18;5.65;;;24.70;84.20;;;;;;5066392;28;20148;-70
2021/03/12 00:58:22;;;;;;;7.63;5.20;;;25.00;84.10;;;;;;5065697;28;20020;-73
2021/03/12 01:00:50;;;;;;;13.70;6.05;;;25.10;83.90;;;;;;5067095;28;20055;-69
2021/03/12 01:03:17;;;;;;;6.45;5.15;;;25.20;83.90;;;;;;5068021;28;20086;-69
2021/03/12 01:05:45;;;;;;;7.38;5.57;;;25.20;84.00;;;;;;5071125;28;20052;-69
2021/03/12 01:08:12;;;;;;;10.32;6.28;;;25.10;82.70;;;;;;5061099;28;20041;-69
2021/03/12 01:10:41;;;;;;;11.88;7.57;;;25.20;84.10;;;;;;5065600;28;20033;-68
2021/03/12 01:13:09;;;;;;;7.38;4.60;;;25.20;82.50;;;;;;5070140;28;20024;-70
2021/03/12 01:15:37;;;;;;;9.20;6.57;;;25.20;82.70;;;;;;5062550;28;20032;-70
2021/03/12 01:18:04;;;;;;;8.82;6.30;;;25.20;83.50;;;;;;5064080;28;20044;-68
2021/03/12 01:20:38;;;;;;;10.73;5.70;;;25.30;84.10;;;;;;5068686;28;20486;-68
2021/03/12 01:23:07;;;;;;;11.90;5.85;;;25.40;84.60;;;;;;5066791;28;20028;-69
2021/03/12 01:25:40;;;;;;;13.55;7.10;;;25.30;82.70;;;;;;5075616;28;20028;-69
2021/03/12 01:28:08;;;;;;;11.43;7.10;;;25.30;82.60;;;;;;5062774;28;20031;-71
2021/03/12 01:30:38;;;;;;;8.38;6.32;;;25.40;82.30;;;;;;5063938;28;20051;-70
2021/03/12 01:33:07;;;;;;;9.57;6.50;;;25.70;82.90;;;;;;5068229;28;20437;-70
2021/03/12 01:35:35;;;;;;;6.43;5.32;;;26.10;83.80;;;;;;5073925;28;20024;-70
2021/03/12 01:38:03;;;;;;;7.80;5.60;;;26.40;82.20;;;;;;5063639;28;20030;-70
2021/03/12 01:40:32;;;;;;;7.28;5.38;;;26.50;80.20;;;;;;5066614;28;20035;-70
2021/03/12 01:43:02;;;;;;;6.75;4.88;;;26.60;78.10;;;;;;5073595;28;20017;-70
2021/03/12 01:45:41;;;;;;;6.35;4.32;;;26.60;78.00;;;;;;5066098;28;20470;-69
2021/03/12 01:48:12;;;;;;;6.60;5.15;;;26.60;77.40;;;;;;5065840;28;20104;-69
2021/03/12 01:50:42;;;;;;;9.25;5.13;;;26.70;75.80;;;;;;5068361;28;20050;-70
2021/03/12 01:53:14;;;;;;;8.10;4.63;;;26.50;77.80;;;;;;5070615;28;20017;-71
2021/03/12 01:55:42;;;;;;;7.57;4.80;;;26.70;77.80;;;;;;5070640;28;20032;-69
2021/03/12 01:58:10;;;;;;;6.55;4.45;;;26.90;77.10;;;;;;5072587;28;20073;-69
2021/03/12 02:00:38;;;;;;;5.80;4.18;;;27.00;76.00;;;;;;5067561;28;20098;-69
2021/03/12 02:03:09;;;;;;;6.20;4.05;;;27.40;72.90;;;;;;5065634;28;20451;-70
2021/03/12 02:05:37;;;;;;;4.72;3.67;;;28.20;72.60;;;;;;5067257;28;20048;-71
2021/03/12 02:08:06;;;;;;;3.42;3.13;;;28.80;71.50;;;;;;5071102;28;20027;-68
2021/03/12 02:10:35;;;;;;;5.40;4.13;;;29.20;69.30;;;;;;5062107;28;20052;-68
2021/03/12 02:13:38;;;;;;;4.68;4.22;;;29.50;67.90;;;;;;5068828;28;20548;-68
2021/03/12 02:16:32;;;;;;;5.10;3.83;;;29.10;70.10;;;;;;5064826;28;20032;-71
2021/03/12 02:19:21;;;;;;;5.70;3.95;;;28.90;68.80;;;;;;5076946;28;20023;-69
2021/03/12 02:21:52;;;;;;;6.65;4.88;;;28.60;70.20;;;;;;5049320;28;20036;-69
2021/03/12 02:24:42;;;;;;;8.25;4.05;;;28.60;71.70;;;;;;5072816;28;20032;-68
2021/03/12 02:27:12;;;;;;;6.72;4.68;;;28.90;69.00;;;;;;5075149;28;20500;-69
2021/03/12 02:29:49;;;;;;;7.10;4.82;;;28.60;70.40;;;;;;5072600;28;20044;-68
2021/03/12 02:32:34;;;;;;;5.35;4.63;;;28.60;70.80;;;;;;5057738;28;21077;-69
2021/03/12 02:35:18;;;;;;;5.93;4.17;;;28.90;72.20;;;;;;5064612;28;20039;-69
2021/03/12 02:37:47;;;;;;;4.93;4.15;;;28.70;68.90;;;;;;5065543;28;20115;-69
2021/03/12 02:40:15;;;;;;;5.28;4.78;;;28.40;68.90;;;;;;5053673;28;20038;-68
2021/03/12 02:42:44;;;;;;;7.43;5.05;;;28.00;72.90;;;;;;5066774;28;20082;-68
2021/03/12 02:45:16;;;;;;;7.03;5.15;;;27.50;72.50;;;;;;5064164;28;20074;-69
2021/03/12 02:47:44;;;;;;;8.30;5.38;;;27.20;73.30;;;;;;5065530;28;20144;-68
2021/03/12 02:50:12;;;;;;;7.32;5.18;;;27.00;72.90;;;;;;5068438;28;20055;-69
2021/03/12 02:52:41;;;;;;;5.25;4.75;;;26.90;73.40;;;;;;5052718;28;20119;-69
2021/03/12 02:55:09;;;;;;;6.00;5.50;;;26.70;74.20;;;;;;5075168;28;20111;-67
2021/03/12 02:57:39;;;;;;;5.88;5.30;;;26.60;75.50;;;;;;5062859;28;20028;-69
2021/03/12 03:00:07;;;;;;;7.18;5.75;;;26.50;75.50;;;;;;5073040;28;20036;-69
2021/03/12 03:02:35;;;;;;;6.78;6.03;;;26.80;77.10;;;;;;5070976;28;20024;-68
2021/03/12 03:05:06;;;;;;;6.47;5.55;;;27.00;75.40;;;;;;5067184;28;20035;-69
2021/03/12 03:07:34;;;;;;;5.85;5.28;;;27.50;74.90;;;;;;5072500;28;20035;-68
2021/03/12 03:10:01;;;;;;;6.38;5.75;;;27.80;73.00;;;;;;5064008;28;20445;-70
2021/03/12 03:12:29;;;;;;;5.85;5.28;;;27.70;72.00;;;;;;5065056;28;20074;-66
2021/03/12 03:15:05;;;;;;;8.05;5.90;;;27.50;72.00;;;;;;5066642;28;20108;-68
2021/03/12 03:17:35;;;;;;;5.53;5.03;;;27.20;73.50;;;;;;5064251;28;20028;-68
2021/03/12 03:20:15;;;;;;;5.57;5.07;;;27.10;74.00;;;;;;5063853;28;20515;-69
2021/03/12 03:22:44;;;;;;;6.00;5.40;;;27.20;74.40;;;;;;5066230;28;20048;-67
2021/03/12 03:25:14;;;;;;;5.90;5.40;;;27.30;73.20;;;;;;5068521;28;20043;-70
2021/03/12 03:27:42;;;;;;;8.50;5.63;;;27.40;72.70;;;;;;5065781;28;20025;-69
2021/03/12 03:30:12;;;;;;;6.88;5.35;;;27.50;73.80;;;;;;5065467;28;20037;-70
2021/03/12 03:32:40;;;;;;;6.07;4.97;;;27.60;72.80;;;;;;5064667;28;20025;-68
2021/03/12 03:35:10;;;;;;;6.85;5.68;;;27.80;72.00;;;;;;5068699;28;20040;-68
2021/03/12 03:37:38;;;;;;;7.57;6.13;;;27.80;71.90;;;;;;5067639;28;20132;-71
2021/03/12 03:40:10;;;;;;;8.50;5.90;;;27.70;73.30;;;;;;5070504;28;20024;-71
2021/03/12 03:42:42;;;;;;;5.30;4.32;;;28.00;73.00;;;;;;5059622;28;20516;-68
2021/03/12 03:45:10;;;;;;;5.10;3.75;;;28.60;69.70;;;;;;5064958;28;20016;-72
2021/03/12 03:47:37;;;;;;;4.47;3.78;;;28.70;70.50;;;;;;5062646;28;20048;-69
2021/03/12 03:50:06;;;;;;;3.92;3.63;;;28.60;69.40;;;;;;5060618;28;20103;-68
2021/03/12 03:52:34;;;;;;;8.10;4.88;;;28.70;68.10;;;;;;5062745;28;20483;-72
2021/03/12 03:55:03;;;;;;;3.70;3.40;;;28.70;69.00;;;;;;5068256;28;20024;-69
2021/03/12 03:57:31;;;;;;;4.40;3.17;;;28.50;68.50;;;;;;5074465;28;20035;-70
2021/03/12 04:00:01;;;;;;;4.45;3.35;;;28.30;70.50;;;;;;5063748;28;20036;-69
2021/03/12 04:02:29;;;;;;;4.00;3.53;;;28.00;70.30;;;;;;5067097;28;20044;-70
2021/03/12 04:04:56;;;;;;;5.95;3.22;;;27.60;71.60;;;;;;5064096;28;20039;-69
2021/03/12 04:07:24;;;;;;;6.07;3.50;;;27.40;73.30;;;;;;5066772;28;20189;-68
2021/03/12 04:09:52;;;;;;;4.72;3.42;;;27.10;74.00;;;;;;5066218;28;20032;-70
2021/03/12 04:12:22;;;;;;;5.07;4.15;;;26.90;74.60;;;;;;5065244;28;20036;-69
2021/03/12 04:14:50;;;;;;;6.57;3.80;;;26.70;74.90;;;;;;5070258;28;20142;-71
2021/03/12 04:17:19;;;;;;;7.13;4.18;;;26.70;75.20;;;;;;5063317;28;20040;-68
2021/03/12 04:19:47;;;;;;;7.20;4.72;;;26.50;75.60;;;;;;5065576;28;20024;-68
2021/03/12 04:22:15;;;;;;;4.97;4.57;;;26.30;76.50;;;;;;5067313;28;20111;-69
2021/03/12 04:24:45;;;;;;;5.10;4.40;;;26.30;77.70;;;;;;5068412;28;20628;-69
2021/03/12 04:27:13;;;;;;;4.43;4.03;;;26.20;77.40;;;;;;5063411;28;20029;-71
2021/03/12 04:29:41;;;;;;;5.90;4.75;;;26.10;80.30;;;;;;5064585;28;20123;-69
2021/03/12 04:32:09;;;;;;;5.22;4.72;;;26.00;80.50;;;;;;5071712;28;20042;-68
2021/03/12 04:34:37;;;;;;;4.72;4.30;;;25.70;81.00;;;;;;5070599;28;20093;-71
2021/03/12 04:37:05;;;;;;;4.78;4.25;;;25.60;81.20;;;;;;5062741;28;20077;-69
2021/03/12 04:39:33;;;;;;;4.45;3.58;;;25.60;82.40;;;;;;5065858;28;20024;-72
2021/03/12 04:42:01;;;;;;;5.22;3.85;;;25.50;81.30;;;;;;5068761;28;20058;-70
2021/03/12 04:44:29;;;;;;;3.25;2.67;;;25.40;80.10;;;;;;5064902;28;20055;-69
2021/03/12 04:46:56;;;;;;;4.53;3.53;;;25.30;80.00;;;;;;5056431;28;20036;-71
2021/03/12 04:49:24;;;;;;;2.35;2.13;;;25.30;80.70;;;;;;5066721;28;20721;-69
2021/03/12 04:51:52;;;;;;;3.40;2.67;;;25.30;79.40;;;;;;5067634;28;20032;-69
2021/03/12 04:54:20;;;;;;;3.85;2.08;;;25.40;79.80;;;;;;5069659;28;20025;-70
2021/03/12 04:56:47;;;;;;;3.90;2.25;;;25.60;80.00;;;;;;5070964;28;20028;-69
2021/03/12 04:59:15;;;;;;;2.00;1.85;;;25.80;79.40;;;;;;5071354;28;20036;-69
2021/03/12 05:01:43;;;;;;;2.72;2.53;;;26.00;78.50;;;;;;5068300;28;20032;-68
2021/03/12 05:04:13;;;;;;;2.38;2.08;;;26.20;76.60;;;;;;5076105;28;20032;-71
2021/03/12 05:06:43;;;;;;;1.83;1.35;;;26.50;76.60;;;;;;5073074;28;20028;-68
2021/03/12 05:09:14;;;;;;;2.05;1.63;;;26.60;75.20;;;;;;5077142;28;20127;-70
2021/03/12 05:11:45;;;;;;;1.50;1.40;;;26.60;74.20;;;;;;5072148;28;20032;-68
2021/03/12 05:14:14;;;;;;;1.33;1.20;;;26.50;73.10;;;;;;5070168;28;20040;-69
2021/03/12 05:16:42;;;;;;;2.58;1.58;;;26.60;74.10;;;;;;5070389;28;20032;-72
2021/03/12 05:19:11;;;;;;;2.95;1.60;;;26.90;73.90;;;;;;5065704;28;20024;-70
2021/03/12 05:21:38;;;;;;;2.55;2.08;;;27.00;73.00;;;;;;5070188;28;20815;-69
2021/03/12 05:24:06;;;;;;;1.48;1.38;;;26.90;73.80;;;;;;5067958;28;20028;-73
2021/03/12 05:26:34;;;;;;;2.17;1.75;;;26.80;74.30;;;;;;5071465;28;20467;-69
2021/03/12 05:29:01;;;;;;;2.72;1.80;;;26.80;73.30;;;;;;5064704;28;20032;-71
2021/03/12 05:31:32;;;;;;;2.13;1.70;;;27.00;72.30;;;;;;5086830;28;20704;-71
2021/03/12 05:33:59;;;;;;;2.10;1.88;;;27.30;71.60;;;;;;5100852;28;20641;-70
2021/03/12 05:36:28;;;;;;;2.22;1.83;;;27.20;73.50;;;;;;5089477;28;20024;-71
2021/03/12 05:38:55;;;;;;;2.90;1.92;;;27.10;73.10;;;;;;5097761;28;20055;-72
2021/03/12 05:41:23;;;;;;;2.65;2.00;;;26.90;73.20;;;;;;5093719;28;20092;-72
2021/03/12 05:43:50;;;;;;;2.90;2.08;;;26.50;74.60;;;;;;5091321;28;20036;-71
2021/03/12 05:46:21;;;;;;;2.80;2.00;;;26.40;74.50;;;;;;5084060;28;20050;-72
2021/03/12 05:48:52;;;;;;;3.92;2.08;;;26.40;75.60;;;;;;5089893;28;20096;-69
2021/03/12 05:51:21;;;;;;;4.45;2.40;;;26.40;76.00;;;;;;5084869;28;20106;-69
2021/03/12 05:53:49;;;;;;;2.58;2.10;;;26.40;75.00;;;;;;5090133;28;20027;-71
2021/03/12 05:56:17;;;;;;;2.28;1.85;;;26.50;73.90;;;;;;5092018;28;20773;-70
2021/03/12 05:58:45;;;;;;;2.47;2.13;;;26.60;74.10;;;;;;5084650;28;20054;-69
2021/03/12 06:01:13;;;;;;;4.63;2.08;;;26.60;73.00;;;;;;5094556;28;20086;-68
2021/03/12 06:03:46;;;;;;;2.33;1.83;;;26.60;74.30;;;;;;5092424;28;20411;-69
2021/03/12 06:06:13;;;;;;;2.63;1.80;;;26.60;74.10;;;;;;5083242;28;20364;-70
2021/03/12 06:08:40;;;;;;;2.22;2.03;;;26.70;73.00;;;;;;5088436;28;20036;-68
2021/03/12 06:11:08;;;;;;;3.20;2.20;;;26.70;72.50;;;;;;5095510;28;20118;-69
2021/03/12 06:13:56;;;;;;;2.20;2.00;;;26.60;73.10;;;;;;5088897;28;20036;-67
2021/03/12 06:16:30;;;;;;;2.90;2.30;;;26.50;73.40;;;;;;5088486;28;20470;-69
2021/03/12 06:19:17;;;;;;;3.15;2.22;;;26.50;75.40;;;;;;5093705;28;20689;-69
2021/03/12 06:21:49;;;;;;;1.90;1.80;;;26.50;74.10;;;;;;5086170;28;20048;-69
2021/03/12 06:24:42;;;;;;;2.70;2.35;;;26.70;72.90;;;;;;5085926;28;20375;-68
2021/03/12 06:27:22;;;;;;;2.78;2.25;;;26.70;73.00;;;;;;5079540;28;20029;-67
2021/03/12 06:29:50;;;;;;;2.65;2.45;;;26.70;73.10;;;;;;5075176;28;20062;-69
2021/03/12 06:32:17;;;;;;;2.70;2.03;;;26.70;74.20;;;;;;5074293;28;20021;-70
2021/03/12 06:35:00;;;;;;;3.30;2.25;;;26.60;74.50;;;;;;5069821;28;20094;-69
2021/03/12 06:37:30;;;;;;;4.82;2.40;;;26.70;73.40;;;;;;5070779;28;20068;-70
2021/03/12 06:39:59;;;;;;;3.28;2.40;;;26.70;73.70;;;;;;5051774;28;20032;-68
2021/03/12 06:42:27;;;;;;;3.17;2.13;;;26.60;74.10;;;;;;5069392;28;20107;-70
2021/03/12 06:45:01;;;;;;;3.00;2.35;;;26.60;73.70;;;;;;5071801;28;20043;-71
2021/03/12 06:47:28;;;;;;;2.75;2.33;;;26.70;73.80;;;;;;5067087;28;20036;-68
2021/03/12 06:49:59;;;;;;;5.82;2.90;;;26.70;74.70;;;;;;5067436;28;20562;-68
2021/03/12 06:52:33;;;;;;;3.20;2.20;;;26.70;74.10;;;;;;5063491;28;20115;-67
2021/03/12 06:55:01;;;;;;;2.60;2.40;;;26.70;74.60;;;;;;5073695;28;20024;-71
2021/03/12 06:57:29;;;;;;;3.42;2.25;;;26.70;74.10;;;;;;5068592;28;20036;-68
2021/03/12 07:00:03;;;;;;;6.97;2.45;;;26.70;74.70;;;;;;5066331;28;20043;-69
2021/03/12 07:02:35;;;;;;;2.60;2.40;;;26.70;74.80;;;;;;5071295;28;20036;-68
2021/03/12 07:05:03;;;;;;;5.22;2.70;;;26.50;74.90;;;;;;5073251;28;20362;-69
2021/03/12 07:07:39;;;;;;;4.47;2.90;;;26.40;74.10;;;;;;5063404;28;20036;-69
2021/03/12 07:10:08;;;;;;;3.63;2.85;;;26.40;74.70;;;;;;5064142;28;20028;-70
2021/03/12 07:13:12;;;;;;;2.72;2.25;;;26.30;74.10;;;;;;5066009;28;20115;-68
2021/03/12 07:15:40;;;;;;;2.50;2.30;;;26.40;74.50;;;;;;5053414;28;20114;-70
2021/03/12 07:18:07;;;;;;;3.63;3.28;;;26.40;73.70;;;;;;5070521;28;20062;-69
2021/03/12 07:20:34;;;;;;;3.63;2.28;;;26.40;74.20;;;;;;5075104;28;20163;-69
2021/03/12 07:23:02;;;;;;;3.10;2.80;;;26.40;73.90;;;;;;5067074;28;20055;-69
2021/03/12 07:25:32;;;;;;;2.40;1.95;;;26.40;74.20;;;;;;5069834;28;20054;-68
2021/03/12 07:28:02;;;;;;;2.85;2.47;;;26.40;73.80;;;;;;5067529;28;20503;-69
2021/03/12 07:30:31;;;;;;;3.33;2.63;;;26.40;73.70;;;;;;5065782;28;20064;-69
2021/03/12 07:33:01;;;;;;;6.60;3.15;;;26.30;74.30;;;;;;5068360;28;20635;-68
2021/03/12 07:35:29;;;;;;;3.72;2.28;;;26.30;73.90;;;;;;5069323;28;20063;-68
2021/03/12 07:38:00;;;;;;;4.07;1.80;;;26.30;73.30;;;;;;5071948;28;20105;-67
2021/03/12 07:40:30;;;;;;;3.45;2.67;;;26.30;73.90;;;;;;5069896;28;20165;-69
2021/03/12 07:42:59;;;;;;;3.50;2.70;;;26.30;74.40;;;;;;5068939;28;20074;-68
2021/03/12 07:45:27;;;;;;;2.15;1.95;;;26.20;75.60;;;;;;5073832;28;20037;-69
2021/03/12 07:47:55;;;;;;;3.58;2.33;;;26.10;75.90;;;;;;5071684;28;20075;-70
2021/03/12 07:50:36;;;;;;;2.65;2.22;;;26.10;74.50;;;;;;5069865;28;20514;-69
2021/03/12 07:53:05;;;;;;;3.83;2.95;;;26.10;74.90;;;;;;5066846;28;20024;-69
2021/03/12 07:55:39;;;;;;;4.53;2.55;;;26.00;75.40;;;;;;5068182;28;20808;-70
2021/03/12 07:58:08;;;;;;;4.90;2.60;;;25.90;75.90;;;;;;5069431;28;20036;-68
2021/03/12 08:00:57;;;;;;;2.83;2.15;;;25.90;76.00;;;;;;5071125;28;20020;-70
2021/03/12 08:03:31;;;;;;;3.20;2.88;;;25.80;76.20;;;;;;5065675;28;20040;-69
2021/03/12 08:05:58;;;;;;;2.97;2.47;;;25.80;76.40;;;;;;5071129;28;20406;-70
2021/03/12 08:08:41;;;;;;;3.13;2.67;;;25.70;76.50;;;;;;5068240;28;20041;-69
2021/03/12 08:11:51;;;;;;;3.17;2.88;;;25.70;76.20;;;;;;5064647;28;20048;-67
2021/03/12 08:14:20;;;;;;;9.13;2.75;;;25.70;77.60;;;;;;5061906;28;20521;-71
2021/03/12 08:17:10;;;;;;;2.15;1.95;;;25.60;77.10;;;;;;5073537;28;20028;-71
2021/03/12 08:19:37;;;;;;;2.15;1.92;;;25.60;77.40;;;;;;5059141;28;20036;-73
2021/03/12 08:22:30;;;;;;;4.13;2.17;;;25.60;77.10;;;;;;5064074;28;20044;-74
2021/03/12 08:24:58;;;;;;;3.58;2.55;;;25.50;77.80;;;;;;5029539;28;20418;-72
2021/03/12 08:27:41;;;;;;;6.35;2.60;;;25.50;77.80;;;;;;5064990;28;20037;-74
2021/03/12 08:30:11;;;;;;;4.43;3.22;;;25.50;77.60;;;;;;5071518;28;20126;-73
2021/03/12 08:32:45;;;;;;;3.08;1.98;;;25.60;77.00;;;;;;5066948;28;20070;-69
2021/03/12 08:35:39;;;;;;;6.03;3.47;;;25.70;77.30;;;;;;5066711;28;20029;-70
2021/03/12 08:38:30;;;;;;;7.32;2.92;;;25.80;77.10;;;;;;5076051;28;20524;-70
2021/03/12 08:41:10;;;;;;;5.95;3.00;;;25.80;77.40;;;;;;5062548;28;20879;-74
2021/03/12 08:43:46;;;;;;;6.57;3.22;;;25.70;78.00;;;;;;5070064;28;20399;-74
2021/03/12 08:46:29;;;;;;;5.80;2.67;;;25.60;78.70;;;;;;5063102;28;20033;-75
2021/03/12 08:49:05;;;;;;;3.45;3.08;;;25.50;79.20;;;;;;5071464;28;20158;-74
2021/03/12 08:51:33;;;;;;;6.40;2.50;;;25.40;79.70;;;;;;5072009;28;20467;-73
2021/03/12 08:54:29;;;;;;;5.30;2.75;;;25.40;79.60;;;;;;5066699;28;20032;-73
2021/03/12 08:56:56;;;;;;;4.10;2.80;;;25.50;79.70;;;;;;5063085;28;20036;-68
2021/03/12 08:59:30;;;;;;;5.72;3.03;;;25.50;79.90;;;;;;5071367;28;20394;-70
2021/03/12 09:01:58;;;;;;;3.88;2.60;;;25.30;80.30;;;;;;5066750;28;20549;-68
2021/03/12 09:04:32;;;;;;;3.72;2.65;;;25.30;80.40;;;;;;5073261;28;21030;-70
2021/03/12 09:07:03;;;;;;;3.85;2.55;;;25.20;80.80;;;;;;5070419;28;20478;-69
2021/03/12 09:09:37;;;;;;;6.25;3.25;;;25.10;80.90;;;;;;5065151;28;20132;-68
2021/03/12 09:12:06;;;;;;;7.00;3.05;;;25.20;80.90;;;;;;5073858;28;20028;-69
2021/03/12 09:14:42;;;;;;;8.75;3.00;;;25.20;80.80;;;;;;5060707;28;20522;-69
2021/03/12 09:17:09;;;;;;;5.35;3.00;;;25.20;80.80;;;;;;5065875;28;20147;-68
2021/03/12 09:19:37;;;;;;;9.40;3.75;;;25.10;80.80;;;;;;5073616;28;20069;-68
2021/03/12 09:22:04;;;;;;;8.82;3.00;;;25.00;80.80;;;;;;5061258;28;20036;-68
2021/03/12 09:24:31;;;;;;;5.30;2.90;;;24.90;81.10;;;;;;5065399;28;20058;-67
2021/03/12 09:26:59;;;;;;;17.63;6.53;;;24.90;81.70;;;;;;5064577;28;20036;-70
2021/03/12 09:29:34;;;;;;;11.95;4.35;;;24.90;81.90;;;;;;5069435;28;20499;-69
2021/03/12 09:32:02;;;;;;;12.40;4.38;;;24.90;81.60;;;;;;5088485;28;20082;-71
2021/03/12 09:34:29;;;;;;;5.07;2.83;;;24.80;81.80;;;;;;5080899;28;20081;-69
2021/03/12 09:36:58;;;;;;;7.03;3.85;;;24.80;81.80;;;;;;5081256;28;20044;-70
2021/03/12 09:39:26;;;;;;;5.47;3.50;;;24.70;82.10;;;;;;5089090;28;20028;-69
2021/03/12 09:41:55;;;;;;;7.55;3.90;;;24.70;82.10;;;;;;5080110;28;20035;-69
2021/03/12 09:44:24;;;;;;;9.90;4.72;;;24.70;82.30;;;;;;5081903;28;20031;-69
2021/03/12 09:46:57;;;;;;;5.10;2.83;;;24.60;82.60;;;;;;5082253;28;20680;-70
2021/03/12 09:49:38;;;;;;;10.20;4.75;;;24.60;82.60;;;;;;5083569;28;20039;-67
2021/03/12 09:52:19;;;;;;;7.13;3.90;;;24.60;82.70;;;;;;5096891;28;20059;-68
2021/03/12 09:54:50;;;;;;;7.53;3.70;;;24.60;82.90;;;;;;5093001;28;20031;-67
2021/03/12 09:57:22;;;;;;;7.78;4.00;;;24.60;82.90;;;;;;5087793;28;20107;-69
2021/03/12 09:59:50;;;;;;;7.63;3.72;;;24.60;82.90;;;;;;5089711;28;20514;-68
2021/03/12 10:02:18;;;;;;;9.02;4.18;;;24.60;82.90;;;;;;5097278;28;20038;-68
2021/03/12 10:04:55;;;;;;;9.73;4.05;;;24.50;82.90;;;;;;5082459;28;20090;-68
2021/03/12 10:07:24;;;;;;;9.70;3.97;;;24.50;83.20;;;;;;5086941;28;20758;-69
2021/03/12 10:09:52;;;;;;;5.32;3.50;;;24.40;84.20;;;;;;5088764;28;20653;-69
2021/03/12 10:12:23;;;;;;;11.20;4.63;;;24.50;84.00;;;;;;5085920;28;20069;-69
2021/03/12 10:14:52;;;;;;;7.72;3.75;;;24.40;83.90;;;;;;5086830;28;20016;-67
2021/03/12 10:17:20;;;;;;;7.20;4.05;;;24.40;84.30;;;;;;5086450;28;20040;-68
2021/03/12 10:20:01;;;;;;;8.90;3.97;;;24.40;84.60;;;;;;5088078;28;20119;-69
2021/03/12 10:22:31;;;;;;;11.52;3.72;;;24.30;85.00;;;;;;5091851;28;20782;-68
2021/03/12 10:25:12;;;;;;;8.70;3.15;;;24.30;84.60;;;;;;5090860;27;20053;-68
2021/03/12 10:27:47;;;;;;;10.70;4.32;;;24.30;85.00;;;;;;5087057;28;20024;-69
2021/03/12 10:30:34;;;;;;;6.93;3.70;;;24.20;85.40;;;;;;5069777;28;20041;-68
2021/03/12 10:33:18;;;;;;;7.68;4.15;;;24.20;85.40;;;;;;5068666;28;20265;-70
2021/03/12 10:35:51;;;;;;;9.57;4.07;;;24.20;85.10;;;;;;5072117;28;20489;-70
2021/03/12 10:38:25;;;;;;;10.85;4.03;;;24.10;85.70;;;;;;5077970;28;20036;-68
2021/03/12 10:40:56;;;;;;;7.28;3.88;;;24.10;86.20;;;;;;5068447;28;20439;-66
2021/03/12 10:43:30;;;;;;;8.93;3.65;;;24.00;85.50;;;;;;5068491;28;20028;-68
2021/03/12 10:46:03;;;;;;;8.93;4.38;;;24.00;86.00;;;;;;5067229;28;20037;-68
2021/03/12 10:48:42;;;;;;;7.90;4.13;;;23.90;86.10;;;;;;5074524;28;21379;-68
2021/03/12 10:51:11;;;;;;;4.10;3.42;;;23.90;86.50;;;;;;5065546;28;20036;-68
2021/03/12 10:53:45;;;;;;;7.88;3.78;;;23.80;86.70;;;;;;5079135;28;20028;-68
2021/03/12 10:56:14;;;;;;;9.10;4.15;;;23.80;86.90;;;;;;5066851;28;20039;-68
2021/03/12 10:58:41;;;;;;;12.95;4.50;;;23.80;87.10;;;;;;5075600;28;20111;-68
2021/03/12 11:01:30;;;;;;;12.35;5.18;;;23.70;88.30;;;;;;5069691;28;20062;-72
2021/03/12 11:04:03;;;;;;;11.45;4.45;;;23.50;89.10;;;;;;5062093;28;20035;-67
2021/03/12 11:06:35;;;;;;;9.32;4.53;;;23.40;90.00;;;;;;5053656;28;20024;-69
2021/03/12 11:09:09;;;;;;;8.43;4.75;;;23.40;90.00;;;;;;5066639;28;20075;-67
2021/03/12 11:11:38;;;;;;;8.00;4.95;;;23.30;90.20;;;;;;5077807;28;20036;-69
2021/03/12 11:14:05;;;;;;;12.15;5.20;;;23.30;90.30;;;;;;5069953;28;20052;-69
2021/03/12 11:16:33;;;;;;;10.55;5.82;;;23.30;90.40;;;;;;5065820;28;20032;-69
2021/03/12 11:19:01;;;;;;;9.60;4.82;;;23.30;90.40;;;;;;5067083;28;20031;-70
2021/03/12 11:21:28;;;;;;;7.85;5.97;;;23.20;90.70;;;;;;5065299;28;20032;-68
2021/03/12 11:23:56;;;;;;;8.02;5.20;;;23.10;90.90;;;;;;5072682;28;20036;-69
2021/03/12 11:26:24;;;;;;;10.65;6.10;;;23.10;91.20;;;;;;5065271;28;20028;-68
2021/03/12 11:28:52;;;;;;;12.25;7.00;;;23.10;91.30;;;;;;5063952;28;20037;-67
2021/03/12 11:31:19;;;;;;;9.93;6.38;;;23.00;91.30;;;;;;5070418;28;20083;-68
2021/03/12 11:33:47;;;;;;;9.13;5.13;;;23.00;91.40;;;;;;5077320;28;20024;-68
2021/03/12 11:36:14;;;;;;;7.97;4.20;;;23.00;91.40;;;;;;5066802;28;20028;-70
2021/03/12 11:38:48;;;;;;;9.77;5.57;;;23.00;91.30;;;;;;5072586;28;20028;-69
2021/03/12 11:41:15;;;;;;;11.60;5.95;;;22.90;91.40;;;;;;5063032;28;20537;-68
2021/03/12 11:43:42;;;;;;;9.55;5.45;;;22.90;91.60;;;;;;5071742;28;20561;-68
2021/03/12 11:46:10;;;;;;;15.25;5.63;;;22.80;91.60;;;;;;5064936;28;21166;-69
2021/03/12 11:48:37;;;;;;;14.43;6.85;;;22.80;91.80;;;;;;5068106;28;20529;-70
2021/03/12 11:51:05;;;;;;;15.80;6.93;;;22.70;92.00;;;;;;5073990;28;20865;-69
2021/03/12 11:53:33;;;;;;;10.32;6.65;;;22.60;92.00;;;;;;5066233;28;20036;-70
2021/03/12 11:56:00;;;;;;;9.15;5.80;;;22.60;92.20;;;;;;5070345;28;20020;-69
2021/03/12 11:58:28;;;;;;;11.57;6.45;;;22.70;92.00;;;;;;5063639;28;20028;-72
2021/03/12 12:00:55;;;;;;;15.35;6.88;;;22.70;91.80;;;;;;5068500;28;20052;-69
2021/03/12 12:03:23;;;;;;;6.60;5.20;;;22.80;91.80;;;;;;5068487;28;20028;-72
2021/03/12 12:05:50;;;;;;;7.85;4.85;;;22.80;91.70;;;;;;5067396;28;20040;-70
2021/03/12 12:08:17;;;;;;;5.72;4.35;;;22.80;91.70;;;;;;5068205;28;20044;-68
2021/03/12 12:10:45;;;;;;;7.88;4.95;;;22.80;91.50;;;;;;5064613;28;20803;-67
2021/03/12 12:13:14;;;;;;;7.70;4.63;;;22.80;91.30;;;;;;5075381;28;20205;-69
2021/03/12 12:15:42;;;;;;;7.60;5.05;;;22.80;91.20;;;;;;5073197;28;20044;-67
2021/03/12 12:18:11;;;;;;;10.55;4.80;;;22.80;91.20;;;;;;5071076;28;20107;-69
2021/03/12 12:20:45;;;;;;;16.88;6.55;;;22.80;91.10;;;;;;5064737;28;20098;-67
2021/03/12 12:23:13;;;;;;;8.05;4.50;;;22.80;91.10;;;;;;5068229;28;20115;-67
2021/03/12 12:25:40;;;;;;;8.07;5.05;;;22.80;91.10;;;;;;5064441;28;20028;-69
2021/03/12 12:28:10;;;;;;;11.82;5.05;;;22.80;91.20;;;;;;5064100;28;20032;-68
2021/03/12 12:30:38;;;;;;;5.28;3.92;;;22.70;91.20;;;;;;5062926;28;21677;-70
2021/03/12 12:33:05;;;;;;;10.48;5.28;;;22.60;91.40;;;;;;5065617;28;20043;-68
2021/03/12 12:35:34;;;;;;;11.05;5.78;;;22.40;91.60;;;;;;5064464;28;20029;-69
2021/03/12 12:38:02;;;;;;;9.45;4.50;;;22.40;92.10;;;;;;5062541;28;20562;-69
2021/03/12 12:40:29;;;;;;;7.28;5.10;;;22.30;91.90;;;;;;5045491;28;20494;-68
2021/03/12 12:42:56;;;;;;;8.75;5.47;;;22.30;92.00;;;;;;5065909;28;20024;-70
2021/03/12 12:45:24;;;;;;;10.15;6.78;;;22.20;92.00;;;;;;5061475;28;20498;-68
2021/03/12 12:47:51;;;;;;;12.10;5.97;;;22.10;92.20;;;;;;5060321;28;20515;-73
2021/03/12 12:50:19;;;;;;;12.65;6.40;;;22.00;92.30;;;;;;5066580;28;20429;-68
2021/03/12 12:52:46;;;;;;;11.50;5.13;;;22.10;92.50;;;;;;5067985;28;20047;-72
2021/03/12 12:55:14;;;;;;;8.18;4.85;;;22.00;92.20;;;;;;5070248;28;20473;-70
2021/03/12 12:57:42;;;;;;;9.15;4.50;;;22.00;92.20;;;;;;5067432;28;20475;-68
2021/03/12 13:00:12;;;;;;;7.22;4.40;;;22.00;92.30;;;;;;5067467;28;20036;-68
2021/03/12 13:02:39;;;;;;;9.27;5.25;;;22.00;92.10;;;;;;5065274;28;20041;-68
2021/03/12 13:05:07;;;;;;;10.18;4.70;;;22.00;92.10;;;;;;5063764;28;20082;-70